Time;durP1;ratioP1;P1;durP2;ratioP2;P2;SDS_P1;SDS_P2;PMS_P1;PMS_P2;Temp;Humidity;BMP_temperature;BMP_pressure;BME280_temperature;BME280_humidity;BME280_pressure;Samples;Min_cycle;Max_cycle;Signal;HPM_P1;HPM_P2
2023/02/25 00:02:09;;;;;;;11.60;1.97;;;;;;;;;;5057846;28;20189;-69
2023/02/25 00:04:35;;;;;;;13.73;2.47;;;;;;;;;;5051527;28;20194;-68
2023/02/25 00:07:01;;;;;;;14.20;2.43;;;;;;;;;;5066086;28;20296;-69
2023/02/25 00:09:27;;;;;;;14.17;2.23;;;;;;;;;;5070174;28;20538;-68
2023/02/25 00:11:53;;;;;;;18.87;2.57;;;;;;;;;;5054502;28;20206;-69
2023/02/25 00:14:18;;;;;;;11.73;2.37;;;;;;;;;;5065170;28;20190;-69
2023/02/25 00:16:44;;;;;;;13.67;2.47;;;;;;;;;;5052677;28;20190;-68
2023/02/25 00:19:09;;;;;;;19.83;2.33;;;;;;;;;;5054148;28;20626;-68
2023/02/25 00:21:35;;;;;;;18.70;2.17;;;;;;;;;;5052080;28;20477;-69
2023/02/25 00:24:01;;;;;;;18.73;2.10;;;;;;;;;;5064344;28;20180;-69
2023/02/25 00:26:26;;;;;;;16.60;2.23;;;;;;;;;;5054764;28;20268;-69
2023/02/25 00:28:52;;;;;;;15.03;2.50;;;;;;;;;;5059681;28;20236;-69
2023/02/25 00:31:20;;;;;;;18.90;2.93;;;;;;;;;;5063687;28;20196;-69
2023/02/25 00:33:47;;;;;;;18.00;2.60;;;;;;;;;;5048748;28;20177;-69
2023/02/25 00:36:20;;;;;;;11.63;2.47;;;;;;;;;;5059705;28;20296;-69
2023/02/25 00:38:49;;;;;;;23.73;3.00;;;;;;;;;;5062207;28;20185;-69
2023/02/25 00:41:18;;;;;;;14.53;2.97;;;;;;;;;;5049125;28;20185;-69
2023/02/25 00:43:55;;;;;;;14.23;3.00;;;;;;;;;;5066569;28;20255;-69
2023/02/25 00:46:21;;;;;;;14.57;2.33;;;;;;;;;;5068457;28;20205;-69
2023/02/25 00:48:47;;;;;;;14.33;2.30;;;;;;;;;;5059305;28;20257;-69
2023/02/25 00:51:16;;;;;;;16.70;2.17;;;;;;;;;;5049073;28;20209;-69
2023/02/25 00:53:41;;;;;;;12.93;1.90;;;;;;;;;;5054346;28;20189;-69
2023/02/25 00:56:09;;;;;;;16.50;2.00;;;;;;;;;;5055089;28;20569;-69
2023/02/25 00:58:35;;;;;;;13.23;1.90;;;;;;;;;;5054197;28;20193;-69
2023/02/25 01:01:01;;;;;;;14.27;2.00;;;;;;;;;;5059884;28;20301;-69
2023/02/25 01:03:27;;;;;;;13.80;2.20;;;;;;;;;;5053222;28;20236;-70
2023/02/25 01:05:52;;;;;;;15.07;1.97;;;;;;;;;;5050420;28;20272;-69
2023/02/25 01:08:19;;;;;;;14.17;2.73;;;;;;;;;;5063626;28;20190;-68
2023/02/25 01:10:45;;;;;;;16.07;2.87;;;;;;;;;;5065378;28;20711;-69
2023/02/25 01:13:11;;;;;;;19.33;3.27;;;;;;;;;;5068621;28;20197;-69
2023/02/25 01:15:37;;;;;;;17.10;2.70;;;;;;;;;;5057476;28;20234;-69
2023/02/25 01:18:03;;;;;;;16.03;2.67;;;;;;;;;;5061529;28;20423;-69
2023/02/25 01:20:28;;;;;;;19.03;2.47;;;;;;;;;;5065524;28;20554;-69
2023/02/25 01:22:55;;;;;;;20.80;2.87;;;;;;;;;;5055120;28;20413;-68
2023/02/25 01:25:20;;;;;;;20.13;3.20;;;;;;;;;;5051107;28;20177;-68
2023/02/25 01:27:46;;;;;;;19.97;3.00;;;;;;;;;;5050900;28;20192;-68
2023/02/25 01:30:12;;;;;;;18.63;2.57;;;;;;;;;;5050615;28;20579;-69
2023/02/25 01:32:37;;;;;;;15.67;2.50;;;;;;;;;;5051357;28;20312;-69
2023/02/25 01:35:03;;;;;;;21.93;2.43;;;;;;;;;;5051310;28;20209;-69
2023/02/25 01:37:29;;;;;;;20.60;2.90;;;;;;;;;;5053499;28;20914;-69
2023/02/25 01:39:54;;;;;;;18.70;2.30;;;;;;;;;;5051094;28;20217;-69
2023/02/25 01:42:20;;;;;;;16.70;2.00;;;;;;;;;;5059609;28;20231;-69
2023/02/25 01:45:20;;;;;;;23.80;2.70;;;;;;;;;;5060660;28;20206;-68
2023/02/25 01:48:03;;;;;;;16.07;2.60;;;;;;;;;;5061050;28;20265;-68
2023/02/25 01:50:38;;;;;;;21.70;2.53;;;;;;;;;;5058365;28;20378;-69
2023/02/25 01:53:04;;;;;;;18.23;2.43;;;;;;;;;;5062431;28;20196;-69
2023/02/25 01:55:31;;;;;;;19.70;3.70;;;;;;;;;;5054955;28;20710;-70
2023/02/25 01:57:59;;;;;;;20.57;2.37;;;;;;;;;;5058562;28;20287;-69
2023/02/25 02:00:26;;;;;;;19.27;2.77;;;;;;;;;;5061945;28;20200;-68
2023/02/25 02:02:53;;;;;;;19.20;2.37;;;;;;;;;;5058641;28;20709;-69
2023/02/25 02:05:22;;;;;;;19.53;2.67;;;;;;;;;;5053147;28;20185;-69
2023/02/25 02:07:47;;;;;;;19.07;2.57;;;;;;;;;;5059477;28;20184;-69
2023/02/25 02:10:13;;;;;;;22.80;3.53;;;;;;;;;;5058368;28;20196;-69
2023/02/25 02:12:42;;;;;;;14.77;2.57;;;;;;;;;;5051640;28;20180;-69
2023/02/25 02:15:11;;;;;;;21.97;4.10;;;;;;;;;;5060998;28;20201;-68
2023/02/25 02:17:45;;;;;;;19.03;2.50;;;;;;;;;;5058191;28;20189;-69
2023/02/25 02:20:24;;;;;;;21.00;2.63;;;;;;;;;;5061290;28;20259;-69
2023/02/25 02:23:28;;;;;;;14.67;2.73;;;;;;;;;;5060985;28;20204;-69
2023/02/25 02:26:43;;;;;;;25.73;2.43;;;;;;;;;;5054372;28;20555;-69
2023/02/25 02:29:36;;;;;;;15.90;2.53;;;;;;;;;;5055217;28;20216;-69
2023/02/25 02:32:06;;;;;;;21.57;2.60;;;;;;;;;;5061428;28;20223;-70
2023/02/25 02:35:02;;;;;;;15.57;3.17;;;;;;;;;;5055622;28;20184;-68
2023/02/25 02:38:21;;;;;;;24.63;2.83;;;;;;;;;;5052622;28;20681;-69
2023/02/25 02:41:35;;;;;;;29.30;2.90;;;;;;;;;;5056807;28;20277;-69
2023/02/25 02:44:09;;;;;;;21.03;2.50;;;;;;;;;;5011155;28;20179;-69
2023/02/25 02:46:46;;;;;;;19.37;3.17;;;;;;;;;;4995664;28;20560;-69
2023/02/25 02:49:30;;;;;;;17.40;2.80;;;;;;;;;;5032669;28;20660;-69
2023/02/25 02:52:00;;;;;;;19.40;2.57;;;;;;;;;;5057582;28;20197;-68
2023/02/25 02:54:31;;;;;;;22.83;2.57;;;;;;;;;;5053776;28;20199;-68
2023/02/25 02:56:59;;;;;;;20.13;2.80;;;;;;;;;;5053747;28;20209;-69
2023/02/25 02:59:29;;;;;;;20.73;2.87;;;;;;;;;;5059733;28;20185;-69
2023/02/25 03:02:33;;;;;;;20.53;2.37;;;;;;;;;;5054145;28;20265;-67
2023/02/25 03:05:08;;;;;;;23.13;2.67;;;;;;;;;;5056807;28;20208;-67
2023/02/25 03:07:40;;;;;;;22.57;2.77;;;;;;;;;;5049781;28;20189;-67
2023/02/25 03:10:09;;;;;;;23.17;2.83;;;;;;;;;;5053036;28;20201;-67
2023/02/25 03:12:37;;;;;;;19.57;2.80;;;;;;;;;;5054325;28;20208;-68
2023/02/25 03:15:03;;;;;;;23.60;3.53;;;;;;;;;;5066860;28;20224;-67
2023/02/25 03:17:35;;;;;;;18.60;2.83;;;;;;;;;;5055269;28;20199;-67
2023/02/25 03:20:12;;;;;;;27.43;3.40;;;;;;;;;;5054425;28;20192;-67
2023/02/25 03:22:41;;;;;;;20.00;2.50;;;;;;;;;;5055032;28;20181;-69
2023/02/25 03:25:28;;;;;;;23.90;2.63;;;;;;;;;;5054010;28;20190;-68
2023/02/25 03:27:56;;;;;;;22.80;3.47;;;;;;;;;;5052172;28;20227;-70
2023/02/25 03:30:34;;;;;;;25.53;3.37;;;;;;;;;;5052718;28;20313;-69
2023/02/25 03:33:09;;;;;;;21.63;2.70;;;;;;;;;;5058749;28;20185;-66
2023/02/25 03:35:37;;;;;;;26.80;3.07;;;;;;;;;;5065693;28;20212;-70
2023/02/25 03:38:09;;;;;;;19.10;2.70;;;;;;;;;;5061110;28;20202;-69
2023/02/25 03:40:37;;;;;;;21.70;2.87;;;;;;;;;;5053577;28;20621;-67
2023/02/25 03:43:09;;;;;;;20.47;2.50;;;;;;;;;;5060750;28;20562;-68
2023/02/25 03:45:37;;;;;;;25.97;3.37;;;;;;;;;;5064239;28;20608;-67
2023/02/25 03:48:04;;;;;;;16.27;3.27;;;;;;;;;;5057025;28;20659;-68
2023/02/25 03:50:34;;;;;;;20.47;2.67;;;;;;;;;;5063796;28;20283;-67
2023/02/25 03:53:00;;;;;;;23.20;3.90;;;;;;;;;;5061421;28;20284;-67
2023/02/25 03:55:28;;;;;;;17.53;2.50;;;;;;;;;;5055363;28;20300;-68
2023/02/25 03:57:53;;;;;;;18.10;2.53;;;;;;;;;;5056242;28;20220;-67
2023/02/25 04:00:29;;;;;;;12.57;2.83;;;;;;;;;;5050828;28;20210;-67
2023/02/25 04:02:55;;;;;;;20.53;2.97;;;;;;;;;;5060533;28;20547;-67
2023/02/25 04:05:22;;;;;;;23.87;3.13;;;;;;;;;;5060519;28;20193;-67
2023/02/25 04:07:47;;;;;;;14.77;2.40;;;;;;;;;;5057847;28;20189;-67
2023/02/25 04:10:15;;;;;;;21.80;3.37;;;;;;;;;;5051049;28;20203;-67
2023/02/25 04:12:41;;;;;;;19.30;2.80;;;;;;;;;;5066689;28;20196;-67
2023/02/25 04:15:08;;;;;;;23.17;3.23;;;;;;;;;;5054931;28;20219;-67
2023/02/25 04:17:34;;;;;;;18.47;2.70;;;;;;;;;;5063682;28;20204;-70
2023/02/25 04:19:59;;;;;;;14.63;2.20;;;;;;;;;;5057156;28;20185;-67
2023/02/25 04:22:25;;;;;;;19.20;2.87;;;;;;;;;;5052078;28;20676;-67
2023/02/25 04:24:51;;;;;;;25.67;4.00;;;;;;;;;;5053513;28;20213;-68
2023/02/25 04:27:16;;;;;;;16.83;2.87;;;;;;;;;;5061153;28;20193;-67
2023/02/25 04:29:42;;;;;;;21.53;2.50;;;;;;;;;;5064992;28;20308;-67
2023/02/25 04:32:08;;;;;;;23.27;2.77;;;;;;;;;;5052041;28;20277;-67
2023/02/25 04:34:33;;;;;;;23.13;3.13;;;;;;;;;;5049780;28;20234;-69
2023/02/25 04:37:01;;;;;;;20.27;2.97;;;;;;;;;;5047783;28;20185;-69
2023/02/25 04:39:27;;;;;;;12.23;2.53;;;;;;;;;;5056117;28;20655;-69
2023/02/25 04:41:52;;;;;;;24.10;3.17;;;;;;;;;;5051256;28;20193;-69
2023/02/25 04:44:18;;;;;;;23.00;3.13;;;;;;;;;;5049731;28;20675;-68
2023/02/25 04:46:43;;;;;;;22.63;2.53;;;;;;;;;;5052245;28;21246;-69
2023/02/25 04:49:09;;;;;;;22.93;2.87;;;;;;;;;;5064114;28;20184;-69
2023/02/25 04:51:36;;;;;;;25.17;3.63;;;;;;;;;;5067568;28;20193;-68
2023/02/25 04:54:02;;;;;;;17.40;2.67;;;;;;;;;;5054652;28;20219;-69
2023/02/25 04:56:27;;;;;;;18.17;2.40;;;;;;;;;;5057699;28;20232;-69
2023/02/25 04:58:53;;;;;;;20.00;2.87;;;;;;;;;;5055366;28;20201;-69
2023/02/25 05:01:18;;;;;;;24.50;2.80;;;;;;;;;;5066768;28;20207;-68
2023/02/25 05:03:44;;;;;;;26.60;3.07;;;;;;;;;;5054615;28;20216;-69
2023/02/25 05:06:10;;;;;;;29.00;2.77;;;;;;;;;;5051590;28;20523;-69
2023/02/25 05:08:35;;;;;;;27.33;2.77;;;;;;;;;;5052166;28;20196;-69
2023/02/25 05:11:02;;;;;;;20.13;2.57;;;;;;;;;;5052125;28;20201;-69
2023/02/25 05:13:28;;;;;;;19.17;3.20;;;;;;;;;;5055069;28;20193;-70
2023/02/25 05:16:08;;;;;;;23.83;3.10;;;;;;;;;;5058436;28;20268;-67
2023/02/25 05:18:38;;;;;;;19.33;2.40;;;;;;;;;;5048028;28;20205;-67
2023/02/25 05:21:06;;;;;;;18.93;2.67;;;;;;;;;;5053924;28;20224;-67
2023/02/25 05:23:32;;;;;;;21.17;2.70;;;;;;;;;;5050584;28;20188;-68
2023/02/25 05:25:58;;;;;;;20.40;2.30;;;;;;;;;;5061747;28;20563;-67
2023/02/25 05:28:24;;;;;;;21.13;2.67;;;;;;;;;;5062053;28;20243;-69
2023/02/25 05:30:51;;;;;;;15.37;2.20;;;;;;;;;;5052378;28;20252;-69
2023/02/25 05:33:16;;;;;;;15.57;2.40;;;;;;;;;;5066331;28;20682;-69
2023/02/25 05:35:41;;;;;;;18.87;2.23;;;;;;;;;;5053922;28;20317;-69
2023/02/25 05:38:07;;;;;;;22.43;3.20;;;;;;;;;;5050651;28;20205;-69
2023/02/25 05:40:35;;;;;;;18.93;2.50;;;;;;;;;;5055899;28;20682;-69
2023/02/25 05:43:00;;;;;;;17.37;2.43;;;;;;;;;;5051931;28;20212;-69
2023/02/25 05:45:26;;;;;;;18.83;2.30;;;;;;;;;;5061934;28;20208;-69
2023/02/25 05:47:51;;;;;;;19.23;2.67;;;;;;;;;;5062868;28;20181;-70
2023/02/25 05:50:17;;;;;;;22.80;4.97;;;;;;;;;;5051620;28;20668;-69
2023/02/25 05:52:42;;;;;;;15.57;3.00;;;;;;;;;;5052679;28;20735;-70
2023/02/25 05:55:08;;;;;;;17.90;2.57;;;;;;;;;;5061218;28;20287;-69
2023/02/25 05:57:34;;;;;;;15.07;2.00;;;;;;;;;;5049334;28;20196;-70
2023/02/25 06:00:00;;;;;;;21.03;2.37;;;;;;;;;;5059508;28;20205;-69
2023/02/25 06:02:25;;;;;;;12.50;2.30;;;;;;;;;;5049368;28;20198;-72
2023/02/25 06:04:54;;;;;;;18.97;2.90;;;;;;;;;;5057599;28;20189;-69
2023/02/25 06:07:20;;;;;;;16.97;2.03;;;;;;;;;;5058709;28;20267;-71
2023/02/25 06:09:45;;;;;;;17.77;2.27;;;;;;;;;;5054063;28;20291;-71
2023/02/25 06:12:10;;;;;;;12.30;1.83;;;;;;;;;;5051575;28;20239;-71
2023/02/25 06:14:36;;;;;;;11.07;1.70;;;;;;;;;;5049918;28;20211;-71
2023/02/25 06:17:01;;;;;;;11.23;1.87;;;;;;;;;;5052145;28;21149;-70
2023/02/25 06:19:27;;;;;;;19.63;3.00;;;;;;;;;;5049740;28;20243;-70
2023/02/25 06:21:53;;;;;;;10.67;1.70;;;;;;;;;;5058880;28;20195;-70
2023/02/25 06:24:20;;;;;;;13.80;2.00;;;;;;;;;;5057833;28;20277;-70
2023/02/25 06:26:45;;;;;;;11.70;1.70;;;;;;;;;;5054967;28;20189;-70
2023/02/25 06:29:11;;;;;;;18.13;2.03;;;;;;;;;;5045443;28;20300;-70
2023/02/25 06:31:36;;;;;;;10.83;1.50;;;;;;;;;;5057852;28;20184;-71
2023/02/25 06:34:02;;;;;;;15.63;2.00;;;;;;;;;;5058958;28;20196;-70
2023/02/25 06:36:28;;;;;;;12.03;1.10;;;;;;;;;;5062061;28;20567;-70
2023/02/25 06:38:53;;;;;;;6.47;1.07;;;;;;;;;;5057875;28;20745;-70
2023/02/25 06:41:21;;;;;;;7.97;1.20;;;;;;;;;;5049351;28;20196;-70
2023/02/25 06:43:51;;;;;;;3.47;0.60;;;;;;;;;;5049324;28;20197;-70
2023/02/25 06:46:21;;;;;;;8.50;1.30;;;;;;;;;;5052655;28;20672;-70
2023/02/25 06:48:46;;;;;;;8.33;1.00;;;;;;;;;;5054026;28;20181;-70
2023/02/25 06:51:11;;;;;;;5.53;0.70;;;;;;;;;;5049128;28;20238;-70
2023/02/25 06:53:38;;;;;;;5.53;0.70;;;;;;;;;;5052865;28;20269;-70
2023/02/25 06:56:05;;;;;;;7.90;0.87;;;;;;;;;;5055593;28;20365;-70
2023/02/25 06:58:31;;;;;;;6.93;1.10;;;;;;;;;;5065711;28;20547;-70
2023/02/25 07:00:57;;;;;;;8.70;1.10;;;;;;;;;;5064592;28;20677;-70
2023/02/25 07:03:22;;;;;;;8.33;1.13;;;;;;;;;;5059535;28;20275;-70
2023/02/25 07:05:48;;;;;;;8.20;1.30;;;;;;;;;;5068615;28;20523;-70
2023/02/25 07:08:13;;;;;;;4.57;0.83;;;;;;;;;;5069127;28;20193;-70
2023/02/25 07:10:42;;;;;;;8.47;0.87;;;;;;;;;;5063456;28;20200;-70
2023/02/25 07:13:09;;;;;;;5.57;0.90;;;;;;;;;;5059683;28;20177;-70
2023/02/25 07:15:34;;;;;;;8.07;1.23;;;;;;;;;;5058581;28;20349;-70
2023/02/25 07:18:00;;;;;;;6.47;0.70;;;;;;;;;;5061481;28;20733;-70
2023/02/25 07:20:25;;;;;;;4.30;0.73;;;;;;;;;;5052960;28;20319;-70
2023/02/25 07:22:51;;;;;;;4.50;0.97;;;;;;;;;;5058052;28;20201;-70
2023/02/25 07:25:17;;;;;;;7.87;1.43;;;;;;;;;;5061447;28;20391;-70
2023/02/25 07:27:43;;;;;;;3.70;1.00;;;;;;;;;;5061693;28;20306;-69
2023/02/25 07:30:12;;;;;;;4.43;1.13;;;;;;;;;;5054428;28;20451;-69
2023/02/25 07:32:39;;;;;;;3.13;0.60;;;;;;;;;;5063213;28;20189;-69
2023/02/25 07:35:04;;;;;;;8.13;0.70;;;;;;;;;;5057983;28;20345;-69
2023/02/25 07:37:33;;;;;;;9.07;1.33;;;;;;;;;;5053613;28;20267;-69
2023/02/25 07:39:58;;;;;;;8.17;1.30;;;;;;;;;;5056192;28;20321;-69
2023/02/25 07:42:27;;;;;;;7.47;1.20;;;;;;;;;;5048981;28;20190;-69
2023/02/25 07:44:53;;;;;;;4.93;0.90;;;;;;;;;;5057751;28;20793;-69
2023/02/25 07:47:19;;;;;;;11.80;1.20;;;;;;;;;;5052424;28;20185;-69
2023/02/25 07:49:45;;;;;;;6.27;0.90;;;;;;;;;;5050931;28;20193;-69
2023/02/25 07:52:10;;;;;;;8.23;1.00;;;;;;;;;;5053716;28;20191;-69
2023/02/25 07:54:35;;;;;;;7.57;1.10;;;;;;;;;;5051231;28;20189;-69
2023/02/25 07:57:01;;;;;;;8.03;1.83;;;;;;;;;;5057316;28;20597;-71
2023/02/25 07:59:27;;;;;;;5.03;0.77;;;;;;;;;;5048868;28;20189;-71
2023/02/25 08:01:53;;;;;;;5.63;0.70;;;;;;;;;;5059407;28;20220;-71
2023/02/25 08:04:18;;;;;;;4.33;0.70;;;;;;;;;;5057327;28;20215;-71
2023/02/25 08:06:45;;;;;;;3.90;0.83;;;;;;;;;;5054050;28;20249;-72
2023/02/25 08:09:11;;;;;;;4.37;0.70;;;;;;;;;;5055861;28;20277;-72
2023/02/25 08:11:37;;;;;;;7.17;0.67;;;;;;;;;;5055847;28;20213;-72
2023/02/25 08:14:04;;;;;;;9.63;0.90;;;;;;;;;;5050625;28;20178;-71
2023/02/25 08:16:31;;;;;;;10.83;0.90;;;;;;;;;;5054633;28;20573;-70
2023/02/25 08:18:56;;;;;;;5.87;0.90;;;;;;;;;;5050553;28;20213;-71
2023/02/25 08:21:22;;;;;;;7.63;0.70;;;;;;;;;;5053090;28;20220;-69
2023/02/25 08:23:49;;;;;;;7.20;0.90;;;;;;;;;;5051155;28;20269;-70
2023/02/25 08:26:18;;;;;;;4.10;0.77;;;;;;;;;;5048549;28;20258;-70
2023/02/25 08:28:44;;;;;;;5.47;0.90;;;;;;;;;;5051288;28;20302;-70
2023/02/25 08:31:13;;;;;;;5.27;0.90;;;;;;;;;;5050029;28;20188;-70
2023/02/25 08:33:42;;;;;;;7.97;1.17;;;;;;;;;;5048762;28;20189;-70
2023/02/25 08:36:14;;;;;;;8.43;1.20;;;;;;;;;;5050388;28;20209;-70
2023/02/25 08:38:40;;;;;;;12.70;1.87;;;;;;;;;;5048174;28;20212;-70
2023/02/25 08:41:06;;;;;;;5.50;1.00;;;;;;;;;;5049430;28;20200;-70
2023/02/25 08:43:33;;;;;;;6.00;0.90;;;;;;;;;;5049628;28;20252;-70
2023/02/25 08:45:58;;;;;;;7.37;1.40;;;;;;;;;;5050433;28;20210;-70
2023/02/25 08:48:24;;;;;;;4.33;0.87;;;;;;;;;;5052360;28;20192;-70
2023/02/25 08:50:49;;;;;;;8.23;0.90;;;;;;;;;;5047741;28;20193;-70
2023/02/25 08:53:14;;;;;;;13.17;1.50;;;;;;;;;;5048486;28;20193;-70
2023/02/25 08:55:40;;;;;;;6.90;1.07;;;;;;;;;;5051045;28;20327;-70
2023/02/25 08:58:06;;;;;;;7.77;1.13;;;;;;;;;;4353751;28;10000804;-70
2023/02/25 09:00:32;;;;;;;6.00;1.10;;;;;;;;;;5056415;28;20251;-69
2023/02/25 09:02:57;;;;;;;7.60;1.20;;;;;;;;;;5058256;28;20189;-70
2023/02/25 09:05:23;;;;;;;6.83;0.97;;;;;;;;;;5054857;28;20197;-69
2023/02/25 09:07:52;;;;;;;5.90;0.80;;;;;;;;;;5058980;28;20666;-70
2023/02/25 09:10:18;;;;;;;6.13;0.97;;;;;;;;;;5061155;28;20216;-69
2023/02/25 09:12:45;;;;;;;5.20;1.20;;;;;;;;;;5060205;28;20209;-70
2023/02/25 09:15:12;;;;;;;5.77;0.73;;;;;;;;;;5059325;28;20209;-70
2023/02/25 09:17:38;;;;;;;8.87;1.40;;;;;;;;;;5057922;28;20276;-70
2023/02/25 09:20:08;;;;;;;3.03;0.67;;;;;;;;;;5062217;28;20211;-69
2023/02/25 09:22:34;;;;;;;7.83;1.07;;;;;;;;;;5057246;28;20682;-69
2023/02/25 09:25:00;;;;;;;11.40;1.40;;;;;;;;;;5062333;28;20196;-70
2023/02/25 09:27:25;;;;;;;4.87;0.90;;;;;;;;;;5059359;28;20240;-69
2023/02/25 09:29:51;;;;;;;4.57;0.90;;;;;;;;;;5045065;28;20258;-71
2023/02/25 09:32:19;;;;;;;9.63;0.90;;;;;;;;;;5057463;28;20556;-76
2023/02/25 09:34:45;;;;;;;5.37;0.83;;;;;;;;;;5061001;28;20196;-71
2023/02/25 09:37:12;;;;;;;6.27;1.10;;;;;;;;;;5058434;28;20193;-71
2023/02/25 09:39:38;;;;;;;11.10;1.10;;;;;;;;;;5061090;28;20813;-70
2023/02/25 09:42:09;;;;;;;9.17;0.90;;;;;;;;;;5061777;28;20552;-69
2023/02/25 09:44:47;;;;;;;6.50;1.33;;;;;;;;;;5060234;28;20228;-69
2023/02/25 09:47:37;;;;;;;13.90;1.17;;;;;;;;;;5049421;28;20193;-69
2023/02/25 09:50:11;;;;;;;10.67;1.43;;;;;;;;;;5057500;28;20200;-71
2023/02/25 09:52:56;;;;;;;10.83;0.97;;;;;;;;;;5062264;28;20556;-70
2023/02/25 09:55:32;;;;;;;6.20;0.90;;;;;;;;;;5058130;28;20850;-70
2023/02/25 09:58:07;;;;;;;8.37;1.17;;;;;;;;;;5060248;28;20710;-70
2023/02/25 10:01:03;;;;;;;7.03;1.13;;;;;;;;;;5064813;28;20251;-69
2023/02/25 10:03:46;;;;;;;8.27;1.20;;;;;;;;;;5051740;28;20623;-71
2023/02/25 10:06:37;;;;;;;10.30;1.20;;;;;;;;;;5064083;28;20189;-71
2023/02/25 10:09:21;;;;;;;12.40;1.37;;;;;;;;;;5049876;28;20478;-69
2023/02/25 10:11:52;;;;;;;7.00;0.70;;;;;;;;;;5058062;28;20325;-71
2023/02/25 10:14:43;;;;;;;10.70;1.17;;;;;;;;;;5059994;28;20199;-72
2023/02/25 10:17:21;;;;;;;6.20;1.30;;;;;;;;;;5057955;28;20718;-70
2023/02/25 10:20:18;;;;;;;8.30;1.40;;;;;;;;;;5057674;28;20284;-73
2023/02/25 10:22:55;;;;;;;6.57;1.20;;;;;;;;;;5056685;28;20287;-71
2023/02/25 10:25:31;;;;;;;8.43;1.03;;;;;;;;;;5054848;28;20284;-71
2023/02/25 10:28:00;;;;;;;7.43;0.90;;;;;;;;;;5050307;28;20271;-73
2023/02/25 10:30:37;;;;;;;8.67;1.10;;;;;;;;;;5061966;28;20246;-69
2023/02/25 10:33:05;;;;;;;6.40;1.00;;;;;;;;;;5046068;28;20264;-72
2023/02/25 10:35:38;;;;;;;5.73;0.90;;;;;;;;;;5054968;28;20212;-74
2023/02/25 10:38:03;;;;;;;10.70;1.10;;;;;;;;;;5062947;28;20192;-73
2023/02/25 10:40:29;;;;;;;9.70;1.07;;;;;;;;;;5056580;28;20196;-71
2023/02/25 10:42:59;;;;;;;13.17;1.23;;;;;;;;;;5050476;28;20292;-71
2023/02/25 10:45:30;;;;;;;7.97;1.00;;;;;;;;;;5055189;28;20196;-71
2023/02/25 10:48:15;;;;;;;7.30;1.47;;;;;;;;;;5058075;28;20537;-71
2023/02/25 10:50:40;;;;;;;6.43;0.67;;;;;;;;;;5058583;28;20284;-73
2023/02/25 10:53:17;;;;;;;6.13;0.90;;;;;;;;;;5058042;28;20189;-73
2023/02/25 10:55:42;;;;;;;7.77;0.87;;;;;;;;;;5037909;28;20213;-73
2023/02/25 10:58:30;;;;;;;8.00;1.07;;;;;;;;;;5049215;28;20205;-70
2023/02/25 11:01:20;;;;;;;5.23;0.80;;;;;;;;;;5057094;28;20240;-70
2023/02/25 11:03:58;;;;;;;4.87;0.83;;;;;;;;;;5046785;28;20255;-73
2023/02/25 11:06:36;;;;;;;6.77;1.00;;;;;;;;;;5054556;28;20221;-71
2023/02/25 11:09:05;;;;;;;9.00;1.20;;;;;;;;;;5055501;28;20640;-70
2023/02/25 11:11:36;;;;;;;8.43;1.13;;;;;;;;;;5048083;28;20629;-72
2023/02/25 11:14:17;;;;;;;7.90;1.17;;;;;;;;;;5042945;28;20192;-70
2023/02/25 11:16:44;;;;;;;7.73;1.13;;;;;;;;;;5051516;28;20554;-73
2023/02/25 11:19:26;;;;;;;3.70;0.97;;;;;;;;;;5055604;28;20192;-70
2023/02/25 11:21:52;;;;;;;7.47;0.73;;;;;;;;;;5052442;28;20272;-71
2023/02/25 11:24:30;;;;;;;6.73;0.90;;;;;;;;;;5056853;28;20180;-71
2023/02/25 11:26:56;;;;;;;7.50;0.68;;;;;;;;;;5059008;28;20177;-73
2023/02/25 11:29:31;;;;;;;5.93;1.10;;;;;;;;;;5057044;28;20231;-70
2023/02/25 11:32:08;;;;;;;7.47;1.07;;;;;;;;;;5058569;28;20188;-70
2023/02/25 11:34:52;;;;;;;9.30;1.10;;;;;;;;;;5056562;28;20218;-70
2023/02/25 11:37:36;;;;;;;4.88;0.80;;;;;;;;;;5056182;28;20223;-71
2023/02/25 11:40:06;;;;;;;4.83;1.00;;;;;;;;;;5058993;28;20185;-70
2023/02/25 11:42:32;;;;;;;4.97;0.70;;;;;;;;;;5060873;28;20535;-70
2023/02/25 11:45:03;;;;;;;7.00;1.20;;;;;;;;;;5057696;28;20197;-70
2023/02/25 11:47:36;;;;;;;6.00;1.43;;;;;;;;;;5052448;28;20181;-74
2023/02/25 11:50:18;;;;;;;4.57;0.60;;;;;;;;;;5061862;28;20182;-70
2023/02/25 11:52:52;;;;;;;8.40;0.90;;;;;;;;;;5061500;28;20376;-69
2023/02/25 11:55:18;;;;;;;6.50;0.70;;;;;;;;;;5053975;28;20211;-68
2023/02/25 11:58:17;;;;;;;3.60;0.60;;;;;;;;;;5052835;28;20193;-71
2023/02/25 12:00:49;;;;;;;7.77;1.23;;;;;;;;;;5049764;28;20228;-70
2023/02/25 12:03:51;;;;;;;9.37;1.20;;;;;;;;;;5051154;28;20189;-70
2023/02/25 12:06:40;;;;;;;5.23;1.07;;;;;;;;;;5049720;28;20196;-70
2023/02/25 12:09:27;;;;;;;5.57;0.70;;;;;;;;;;5048786;28;20242;-70
2023/02/25 12:11:54;;;;;;;7.87;1.37;;;;;;;;;;5053023;28;20409;-71
2023/02/25 12:14:55;;;;;;;5.47;0.67;;;;;;;;;;5050443;28;20189;-71
2023/02/25 12:17:46;;;;;;;1.27;0.40;;;;;;;;;;5056588;28;20203;-71
2023/02/25 12:20:32;;;;;;;4.40;0.50;;;;;;;;;;5052454;28;20189;-68
2023/02/25 12:23:35;;;;;;;4.23;0.60;;;;;;;;;;5060119;28;20720;-69
2023/02/25 12:26:07;;;;;;;7.63;0.87;;;;;;;;;;5063161;28;20233;-69
2023/02/25 12:29:07;;;;;;;6.50;0.90;;;;;;;;;;5055529;28;20205;-69
2023/02/25 12:31:45;;;;;;;3.47;0.60;;;;;;;;;;5062061;28;20212;-70
2023/02/25 12:34:38;;;;;;;3.97;1.00;;;;;;;;;;5061925;28;20199;-73
2023/02/25 12:37:17;;;;;;;2.53;0.73;;;;;;;;;;5060458;28;20266;-69
2023/02/25 12:40:02;;;;;;;2.20;0.20;;;;;;;;;;5054649;28;20238;-69
2023/02/25 12:42:43;;;;;;;2.97;0.53;;;;;;;;;;5056300;28;20284;-68
2023/02/25 12:45:34;;;;;;;4.40;0.40;;;;;;;;;;5052800;28;20189;-70
2023/02/25 12:48:24;;;;;;;3.53;0.50;;;;;;;;;;5060405;28;20251;-70
2023/02/25 12:51:12;;;;;;;2.83;0.50;;;;;;;;;;5058890;28;20273;-69
2023/02/25 12:54:15;;;;;;;6.00;0.60;;;;;;;;;;5066810;28;20188;-70
2023/02/25 12:56:52;;;;;;;4.20;0.73;;;;;;;;;;5057959;28;20291;-70
2023/02/25 12:59:39;;;;;;;6.90;0.60;;;;;;;;;;5054516;28;20762;-70
2023/02/25 13:02:25;;;;;;;4.77;0.50;;;;;;;;;;5057652;28;20262;-70
2023/02/25 13:05:12;;;;;;;3.13;0.57;;;;;;;;;;5066182;28;20185;-73
2023/02/25 13:07:37;;;;;;;3.33;0.43;;;;;;;;;;5067055;28;20298;-70
2023/02/25 13:10:41;;;;;;;3.50;0.73;;;;;;;;;;5059082;28;20307;-70
2023/02/25 13:13:27;;;;;;;5.00;0.73;;;;;;;;;;5052439;28;20652;-72
2023/02/25 13:16:14;;;;;;;5.07;0.80;;;;;;;;;;5064625;28;20295;-71
2023/02/25 13:18:50;;;;;;;3.73;0.37;;;;;;;;;;5052222;28;20239;-71
2023/02/25 13:21:19;;;;;;;3.90;0.50;;;;;;;;;;5054190;28;20552;-71
2023/02/25 13:24:08;;;;;;;4.97;0.60;;;;;;;;;;5059393;28;20273;-70
2023/02/25 13:26:43;;;;;;;1.90;0.50;;;;;;;;;;5053395;28;20197;-75
2023/02/25 13:29:27;;;;;;;4.63;0.50;;;;;;;;;;5048144;28;20319;-73
2023/02/25 13:32:07;;;;;;;6.70;0.40;;;;;;;;;;5063034;28;20286;-70
2023/02/25 13:35:09;;;;;;;4.77;0.80;;;;;;;;;;5066294;28;20184;-70
2023/02/25 13:37:50;;;;;;;5.43;0.80;;;;;;;;;;5050039;28;20201;-70
2023/02/25 13:40:19;;;;;;;4.33;0.60;;;;;;;;;;5053420;28;20598;-70
2023/02/25 13:43:00;;;;;;;4.03;0.70;;;;;;;;;;5055944;28;20186;-70
2023/02/25 13:45:55;;;;;;;4.13;0.50;;;;;;;;;;5047269;28;20540;-71
2023/02/25 13:48:47;;;;;;;7.13;0.70;;;;;;;;;;5047280;28;20700;-69
2023/02/25 13:51:12;;;;;;;4.93;0.40;;;;;;;;;;5061300;28;20191;-68
2023/02/25 13:53:59;;;;;;;3.60;0.70;;;;;;;;;;5048948;28;20181;-68
2023/02/25 13:56:45;;;;;;;2.43;0.37;;;;;;;;;;5061458;28;20204;-69
2023/02/25 13:59:23;;;;;;;2.23;0.40;;;;;;;;;;5067692;28;20557;-71
2023/02/25 14:02:00;;;;;;;4.50;0.53;;;;;;;;;;5061330;28;20212;-68
2023/02/25 14:04:49;;;;;;;3.37;0.60;;;;;;;;;;5055647;28;20188;-69
2023/02/25 14:07:41;;;;;;;2.33;0.57;;;;;;;;;;5055197;28;20200;-69
2023/02/25 14:10:36;;;;;;;6.33;0.70;;;;;;;;;;5063604;28;20212;-71
2023/02/25 14:13:20;;;;;;;6.90;0.80;;;;;;;;;;5055993;28;20326;-69
2023/02/25 14:15:51;;;;;;;5.10;1.07;;;;;;;;;;5055278;28;20688;-70
2023/02/25 14:18:34;;;;;;;3.67;0.70;;;;;;;;;;5052737;28;20186;-69
2023/02/25 14:21:05;;;;;;;5.03;0.87;;;;;;;;;;5053920;28;20193;-68
2023/02/25 14:23:44;;;;;;;4.60;0.67;;;;;;;;;;5050657;28;20197;-68
2023/02/25 14:26:44;;;;;;;5.40;0.90;;;;;;;;;;5058266;28;20275;-70
2023/02/25 14:29:33;;;;;;;2.77;0.90;;;;;;;;;;5054779;28;20303;-68
2023/02/25 14:32:32;;;;;;;4.20;0.90;;;;;;;;;;5060964;28;20197;-67
2023/02/25 14:35:03;;;;;;;4.77;0.70;;;;;;;;;;5055870;28;20942;-68
2023/02/25 14:37:57;;;;;;;3.80;0.60;;;;;;;;;;5061685;28;20220;-68
2023/02/25 14:41:09;;;;;;;4.07;0.77;;;;;;;;;;5057696;28;20193;-68
2023/02/25 14:43:36;;;;;;;2.37;0.60;;;;;;;;;;5041323;28;20358;-68
2023/02/25 14:46:29;;;;;;;1.80;0.53;;;;;;;;;;5059415;28;20593;-67
2023/02/25 14:49:09;;;;;;;2.83;0.40;;;;;;;;;;5047925;28;20653;-68
2023/02/25 14:52:07;;;;;;;4.33;0.60;;;;;;;;;;5053383;28;20188;-67
2023/02/25 14:54:53;;;;;;;6.07;0.60;;;;;;;;;;5061389;28;20205;-68
2023/02/25 14:57:37;;;;;;;5.37;0.73;;;;;;;;;;5059132;28;20185;-68
2023/02/25 15:00:27;;;;;;;1.70;0.40;;;;;;;;;;5051731;28;20205;-68
2023/02/25 15:03:08;;;;;;;4.37;0.57;;;;;;;;;;5064840;28;20269;-69
2023/02/25 15:05:44;;;;;;;4.87;0.60;;;;;;;;;;5057568;28;20298;-68
2023/02/25 15:08:16;;;;;;;4.00;0.97;;;;;;;;;;5059593;28;20330;-69
2023/02/25 15:10:56;;;;;;;6.27;0.80;;;;;;;;;;5063304;28;20193;-68